createdAt,value
2017-11-07T00:00:24.322Z,17.12
2017-11-07T00:00:52.685Z,17.1
2017-11-07T00:01:21.158Z,17.16
2017-11-07T00:01:49.691Z,17.16
2017-11-07T00:02:18.301Z,17.13
2017-11-07T00:02:46.807Z,17.14
2017-11-07T00:03:15.245Z,17.16
2017-11-07T00:03:43.700Z,17.16
2017-11-07T00:04:12.266Z,17.14
2017-11-07T00:04:40.669Z,17.13
2017-11-07T00:05:09.104Z,17.17
2017-11-07T00:05:37.591Z,17.14
2017-11-07T00:06:06.067Z,17.09
2017-11-07T00:06:34.678Z,17.17
2017-11-07T00:07:03.068Z,17.1
2017-11-07T00:07:31.176Z,17.1
2017-11-07T00:07:59.309Z,17.12
2017-11-07T00:08:27.802Z,17.14
2017-11-07T00:08:56.293Z,17.14
2017-11-07T00:09:25.396Z,17.1
2017-11-07T00:09:53.799Z,17.13
2017-11-07T00:10:22.165Z,17.16
2017-11-07T00:10:50.572Z,17.1
2017-11-07T00:11:18.833Z,17.16
2017-11-07T00:11:46.828Z,17.16
2017-11-07T00:12:14.821Z,17.16
2017-11-07T00:12:43.047Z,17.14
2017-11-07T00:13:11.468Z,17.13
2017-11-07T00:13:39.802Z,17.13
2017-11-07T00:14:08.110Z,17.19
2017-11-07T00:14:36.307Z,17.13
2017-11-07T00:15:04.868Z,17.17
2017-11-07T00:15:33.384Z,17.14
2017-11-07T00:16:02.018Z,17.14
2017-11-07T00:16:30.505Z,17.14
2017-11-07T00:16:59.047Z,17.09
2017-11-07T00:17:27.396Z,17.14
2017-11-07T00:17:56.046Z,17.2
2017-11-07T00:18:24.292Z,17.16
2017-11-07T00:18:52.999Z,17.1
2017-11-07T00:19:21.430Z,17.13
2017-11-07T00:19:49.980Z,17.1
2017-11-07T00:20:18.518Z,17.14
2017-11-07T00:20:46.845Z,17.1
2017-11-07T00:21:15.180Z,17.2
2017-11-07T00:21:43.746Z,17.14
2017-11-07T00:22:12.259Z,17.19
2017-11-07T00:22:40.977Z,17.22
2017-11-07T00:23:09.394Z,17.27
2017-11-07T00:23:38.005Z,17.17
2017-11-07T00:24:06.670Z,17.17
2017-11-07T00:24:35.289Z,17.14
2017-11-07T00:25:03.890Z,17.2
2017-11-07T00:25:32.337Z,17.1
2017-11-07T00:26:00.686Z,17.12
2017-11-07T00:26:29.166Z,17.14
2017-11-07T00:26:57.865Z,17.16
2017-11-07T00:27:26.317Z,17.14
2017-11-07T00:27:54.853Z,17.12
2017-11-07T00:28:23.333Z,17.14
2017-11-07T00:28:51.729Z,17.17
2017-11-07T00:29:19.977Z,17.17
2017-11-07T00:29:48.142Z,17.19
2017-11-07T00:30:16.495Z,17.19
2017-11-07T00:30:44.907Z,17.2
2017-11-07T00:31:13.127Z,17.19
2017-11-07T00:31:41.309Z,17.2
2017-11-07T00:32:09.793Z,17.19
2017-11-07T00:32:38.182Z,17.27
2017-11-07T00:33:06.531Z,17.23
2017-11-07T00:33:34.632Z,17.34
2017-11-07T00:34:02.624Z,17.23
2017-11-07T00:34:30.869Z,17.31
2017-11-07T00:34:59.033Z,17.3
2017-11-07T00:35:27.186Z,17.28
2017-11-07T00:35:55.465Z,17.31
2017-11-07T00:36:23.659Z,17.28
2017-11-07T00:36:51.920Z,17.3
2017-11-07T00:37:20.056Z,17.28
2017-11-07T00:37:48.520Z,17.28
2017-11-07T00:38:16.769Z,17.3
2017-11-07T00:38:45.056Z,17.23
2017-11-07T00:39:13.567Z,17.3
2017-11-07T00:39:41.964Z,17.38
2017-11-07T00:40:10.314Z,17.31
2017-11-07T00:40:38.812Z,17.39
2017-11-07T00:41:06.959Z,17.35
2017-11-07T00:41:35.112Z,17.32
2017-11-07T00:42:03.573Z,17.35
2017-11-07T00:42:31.682Z,17.39
2017-11-07T00:43:00.110Z,17.39
2017-11-07T00:43:28.112Z,17.37
2017-11-07T00:43:56.370Z,17.38
2017-11-07T00:44:24.960Z,17.38
2017-11-07T00:44:53.472Z,17.38
2017-11-07T00:45:21.749Z,17.41
2017-11-07T00:45:49.897Z,17.38
2017-11-07T00:46:18.170Z,17.35
2017-11-07T00:46:46.069Z,17.31
2017-11-07T00:47:14.268Z,17.35
2017-11-07T00:47:42.428Z,17.31
2017-11-07T00:48:10.508Z,17.34
2017-11-07T00:48:38.548Z,17.3
2017-11-07T00:49:06.639Z,17.34
2017-11-07T00:49:34.736Z,17.38
2017-11-07T00:50:02.698Z,17.38
2017-11-07T00:50:30.679Z,17.35
2017-11-07T00:50:58.657Z,17.37
2017-11-07T00:51:26.704Z,17.34
2017-11-07T00:51:54.840Z,17.32
2017-11-07T00:52:22.711Z,17.32
2017-11-07T00:52:50.849Z,17.38
2017-11-07T00:53:18.927Z,17.37
2017-11-07T00:53:47.082Z,17.34
2017-11-07T00:54:15.096Z,17.39
2017-11-07T00:54:43.222Z,17.38
2017-11-07T00:55:11.346Z,17.39
2017-11-07T00:55:39.334Z,17.38
2017-11-07T00:56:07.392Z,17.37
2017-11-07T00:56:35.569Z,17.38
2017-11-07T00:57:03.605Z,17.39
2017-11-07T00:57:31.747Z,17.38
2017-11-07T00:57:59.839Z,17.39
2017-11-07T00:58:28.014Z,17.38
2017-11-07T00:58:56.180Z,17.38
2017-11-07T00:59:24.167Z,17.37
2017-11-07T00:59:52.208Z,17.37
2017-11-07T01:00:20.142Z,17.38
2017-11-07T01:00:48.219Z,17.34
2017-11-07T01:01:16.174Z,17.32
2017-11-07T01:01:44.231Z,17.35
2017-11-07T01:02:12.321Z,17.47
2017-11-07T01:02:40.367Z,17.39
2017-11-07T01:03:08.532Z,17.44
2017-11-07T01:03:36.584Z,17.37
2017-11-07T01:04:04.650Z,17.47
2017-11-07T01:04:32.811Z,17.39
2017-11-07T01:05:00.908Z,17.35
2017-11-07T01:05:28.996Z,17.31
2017-11-07T01:06:55.204Z,17.31
2017-11-07T01:07:23.319Z,17.31
2017-11-07T01:07:51.453Z,17.31
2017-11-07T01:08:19.493Z,17.2
2017-11-07T01:08:47.547Z,17.24
2017-11-07T01:09:15.693Z,17.3
2017-11-07T01:09:43.812Z,17.22
2017-11-07T01:10:11.869Z,17.23
2017-11-07T01:10:39.988Z,17.24
2017-11-07T01:11:08.046Z,17.28
2017-11-07T01:11:36.070Z,17.31
2017-11-07T01:12:04.189Z,17.24
2017-11-07T01:12:32.284Z,17.31
2017-11-07T01:13:00.310Z,17.27
2017-11-07T01:13:28.414Z,17.2
2017-11-07T01:13:56.566Z,17.24
2017-11-07T01:14:24.671Z,17.27
2017-11-07T01:14:52.653Z,17.2
2017-11-07T01:15:20.766Z,17.27
2017-11-07T01:15:48.854Z,17.2
2017-11-07T01:16:17.032Z,17.27
2017-11-07T01:16:45.079Z,17.28
2017-11-07T01:17:13.215Z,17.24
2017-11-07T01:17:41.347Z,17.28
2017-11-07T01:18:09.179Z,17.2
2017-11-07T01:18:37.206Z,17.34
2017-11-07T01:19:05.268Z,17.34
2017-11-07T01:19:33.325Z,17.32
2017-11-07T01:20:01.451Z,17.31
2017-11-07T01:20:29.485Z,17.32
2017-11-07T01:20:57.516Z,17.32
2017-11-07T01:21:25.553Z,17.31
2017-11-07T01:21:53.625Z,17.3
2017-11-07T01:22:21.589Z,17.24
2017-11-07T01:22:49.855Z,17.24
2017-11-07T01:23:17.979Z,17.24
2017-11-07T01:23:46.426Z,17.27
2017-11-07T01:24:14.480Z,17.2
2017-11-07T01:24:42.303Z,17.16
2017-11-07T01:25:10.241Z,17.14
2017-11-07T01:25:38.368Z,17.19
2017-11-07T01:26:06.500Z,17.17
2017-11-07T01:26:34.540Z,17.16
2017-11-07T01:27:02.680Z,17.14
2017-11-07T01:27:30.819Z,17.12
2017-11-07T01:27:58.842Z,17.16
2017-11-07T01:28:26.926Z,17.14
2017-11-07T01:28:55.041Z,17.13
2017-11-07T01:29:23.163Z,17.16
2017-11-07T01:29:50.993Z,17.12
2017-11-07T01:30:19.175Z,17.13
2017-11-07T01:30:47.215Z,17.1
2017-11-07T01:31:14.999Z,17.19
2017-11-07T01:31:43.050Z,17.16
2017-11-07T01:32:11.209Z,17.14
2017-11-07T01:32:39.095Z,17.14
2017-11-07T01:33:07.136Z,17.13
2017-11-07T01:33:35.113Z,17.17
2017-11-07T01:34:03.250Z,17.19
2017-11-07T01:34:31.196Z,17.19
2017-11-07T01:34:59.154Z,17.23
2017-11-07T01:35:27.314Z,17.2
2017-11-07T01:35:55.436Z,17.14
2017-11-07T01:36:23.245Z,17.19
2017-11-07T01:36:51.302Z,17.16
2017-11-07T01:37:19.350Z,17.22
2017-11-07T01:37:47.462Z,17.22
2017-11-07T01:38:15.519Z,17.22
2017-11-07T01:38:43.554Z,17.28
2017-11-07T01:39:11.610Z,17.22
2017-11-07T01:39:39.711Z,17.2
2017-11-07T01:40:07.624Z,17.2
2017-11-07T01:40:35.474Z,17.24
2017-11-07T01:41:03.515Z,17.27
2017-11-07T01:41:31.528Z,17.19
2017-11-07T01:41:59.836Z,17.13
2017-11-07T01:42:27.749Z,17.22
2017-11-07T01:42:55.820Z,17.14
2017-11-07T01:43:23.764Z,17.17
2017-11-07T01:43:51.576Z,17.2
2017-11-07T01:44:19.801Z,17.27
2017-11-07T01:44:47.729Z,17.27
2017-11-07T01:45:15.581Z,17.22
2017-11-07T01:45:43.525Z,17.31
2017-11-07T01:46:11.666Z,17.27
2017-11-07T01:46:39.799Z,17.23
2017-11-07T01:47:07.621Z,17.3
2017-11-07T01:47:35.730Z,17.27
2017-11-07T01:48:03.724Z,17.32
2017-11-07T01:48:31.476Z,17.2
2017-11-07T01:48:59.519Z,17.28
2017-11-07T01:49:27.542Z,17.27
2017-11-07T01:49:55.587Z,17.23
2017-11-07T01:50:23.601Z,17.3
2017-11-07T01:50:51.617Z,17.32
2017-11-07T01:51:19.728Z,17.3
2017-11-07T01:51:47.877Z,17.39
2017-11-07T01:52:15.912Z,17.39
2017-11-07T01:52:44.109Z,17.32
2017-11-07T01:53:12.250Z,17.3
2017-11-07T01:53:40.399Z,17.31
2017-11-07T01:54:08.471Z,17.27
2017-11-07T01:54:36.627Z,17.24
2017-11-07T01:55:04.352Z,17.23
2017-11-07T01:55:32.461Z,17.27
2017-11-07T01:56:00.391Z,17.2
2017-11-07T01:56:28.518Z,17.19
2017-11-07T01:56:56.657Z,17.22
2017-11-07T01:57:24.671Z,17.27
2017-11-07T01:57:53.060Z,17.22
2017-11-07T01:58:21.105Z,17.19
2017-11-07T01:58:49.036Z,17.17
2017-11-07T01:59:16.997Z,17.17
2017-11-07T01:59:45.040Z,17.09
2017-11-07T02:00:13.205Z,17.17
2017-11-07T02:00:41.373Z,17.14
2017-11-07T02:01:09.405Z,17.05
2017-11-07T02:01:37.356Z,17.01
2017-11-07T02:02:05.509Z,17.16
2017-11-07T02:02:33.649Z,17.02
2017-11-07T02:03:01.846Z,17.16
2017-11-07T02:03:30.013Z,17.12
2017-11-07T02:03:58.106Z,17.01
2017-11-07T02:04:26.192Z,17.14
2017-11-07T02:04:54.312Z,17.2
2017-11-07T02:05:22.361Z,17.14
2017-11-07T02:05:50.425Z,17.14
2017-11-07T02:06:18.694Z,17.13
2017-11-07T02:06:47.005Z,17.1
2017-11-07T02:07:15.202Z,17.13
2017-11-07T02:07:43.137Z,17.02
2017-11-07T02:08:11.295Z,17.02
2017-11-07T02:08:39.157Z,17.04
2017-11-07T02:09:07.218Z,17.05
2017-11-07T02:09:35.192Z,17.02
2017-11-07T02:10:03.322Z,17.02
2017-11-07T02:10:31.345Z,17.05
2017-11-07T02:10:59.327Z,16.99
2017-11-07T02:11:27.258Z,16.98
2017-11-07T02:11:55.225Z,17.07
2017-11-07T02:12:23.082Z,17.13
2017-11-07T02:12:51.235Z,17.05
2017-11-07T02:13:19.083Z,16.98
2017-11-07T02:13:47.109Z,17.02
2017-11-07T02:14:15.056Z,17.02
2017-11-07T02:14:43.065Z,17.1
2017-11-07T02:15:10.993Z,17.14
2017-11-07T02:15:39.161Z,17.02
2017-11-07T02:16:07.200Z,17.01
2017-11-07T02:16:35.232Z,16.99
2017-11-07T02:17:03.643Z,17.01
2017-11-07T02:17:31.883Z,17.1
2017-11-07T02:18:00.014Z,17.13
2017-11-07T02:18:28.178Z,17.02
2017-11-07T02:18:56.216Z,17.09
2017-11-07T02:19:24.336Z,17.02
2017-11-07T02:19:52.281Z,17.07
2017-11-07T02:20:20.427Z,17.07
2017-11-07T02:20:48.466Z,17.05
2017-11-07T02:21:16.383Z,17.07
2017-11-07T02:21:44.617Z,17.01
2017-11-07T02:22:12.783Z,16.99
2017-11-07T02:22:40.712Z,16.97
2017-11-07T02:23:08.756Z,17.02
2017-11-07T02:23:36.827Z,16.98
2017-11-07T02:24:04.840Z,16.98
2017-11-07T02:24:32.777Z,16.97
2017-11-07T02:25:00.704Z,16.98
2017-11-07T02:25:28.791Z,16.99
2017-11-07T02:25:56.757Z,17.02
2017-11-07T02:26:24.687Z,16.98
2017-11-07T02:26:52.677Z,16.97
2017-11-07T02:27:20.594Z,17.01
2017-11-07T02:27:48.632Z,17.01
2017-11-07T02:28:16.788Z,16.99
2017-11-07T02:28:44.700Z,16.95
2017-11-07T02:29:12.768Z,17.04
2017-11-07T02:29:40.802Z,16.97
2017-11-07T02:30:08.835Z,17.01
2017-11-07T02:30:36.810Z,16.99
2017-11-07T02:31:04.824Z,17.01
2017-11-07T02:31:32.848Z,17.01
2017-11-07T02:32:00.989Z,17.05
2017-11-07T02:32:29.006Z,17.01
2017-11-07T02:32:56.842Z,17.02
2017-11-07T02:33:24.801Z,17.09
2017-11-07T02:33:52.937Z,16.99
2017-11-07T02:34:20.792Z,17.02
2017-11-07T02:34:48.913Z,17.02
2017-11-07T02:35:17.033Z,17.1
2017-11-07T02:35:44.873Z,17.02
2017-11-07T02:36:12.989Z,17.1
2017-11-07T02:36:40.938Z,16.99
2017-11-07T02:37:08.970Z,17.01
2017-11-07T02:37:36.908Z,16.99
2017-11-07T02:38:04.931Z,17.02
2017-11-07T02:38:33.116Z,17.05
2017-11-07T02:39:01.199Z,16.99
2017-11-07T02:39:29.223Z,17.02
2017-11-07T02:39:57.348Z,17.02
2017-11-07T02:40:25.245Z,16.98
2017-11-07T02:40:53.296Z,17.02
2017-11-07T02:41:21.227Z,17.01
2017-11-07T02:41:49.359Z,17.01
2017-11-07T02:42:17.512Z,16.99
2017-11-07T02:42:45.622Z,17.01
2017-11-07T02:43:13.659Z,16.98
2017-11-07T02:43:41.716Z,16.99
2017-11-07T02:44:09.865Z,17.04
2017-11-07T02:44:38.017Z,17.04
2017-11-07T02:45:06.025Z,17.05
2017-11-07T02:45:33.971Z,17.05
2017-11-07T02:46:02.133Z,17.04
2017-11-07T02:46:30.251Z,17.05
2017-11-07T02:46:58.247Z,17.07
2017-11-07T02:47:26.190Z,17.01
2017-11-07T02:47:54.355Z,16.95
2017-11-07T02:48:22.435Z,16.97
2017-11-07T02:48:50.372Z,16.87
2017-11-07T02:49:18.400Z,16.94
2017-11-07T02:49:46.465Z,16.92
2017-11-07T02:50:14.509Z,16.89
2017-11-07T02:50:42.451Z,16.87
2017-11-07T02:51:10.527Z,16.87
2017-11-07T02:51:38.688Z,16.87
2017-11-07T02:52:06.658Z,16.83
2017-11-07T02:52:34.831Z,16.82
2017-11-07T02:53:02.886Z,16.86
2017-11-07T02:53:31.025Z,16.87
2017-11-07T02:53:59.167Z,16.82
2017-11-07T02:54:27.298Z,16.83
2017-11-07T02:54:55.128Z,16.82
2017-11-07T02:55:23.187Z,16.77
2017-11-07T02:55:51.285Z,16.8
2017-11-07T02:56:19.439Z,16.79
2017-11-07T02:56:47.598Z,16.76
2017-11-07T02:57:15.549Z,16.73
2017-11-07T02:57:43.589Z,16.76
2017-11-07T02:58:11.519Z,16.79
2017-11-07T02:58:39.339Z,16.68
2017-11-07T02:59:07.268Z,16.73
2017-11-07T02:59:35.395Z,16.79
2017-11-07T03:00:03.309Z,16.77
2017-11-07T03:00:31.384Z,16.79
2017-11-07T03:00:59.526Z,16.73
2017-11-07T03:01:27.716Z,16.72
2017-11-07T03:01:55.852Z,16.68
2017-11-07T03:02:23.940Z,16.77
2017-11-07T03:02:52.098Z,16.69
2017-11-07T03:03:20.210Z,16.73
2017-11-07T03:03:48.660Z,16.77
2017-11-07T03:04:16.817Z,16.77
2017-11-07T03:04:44.826Z,16.76
2017-11-07T03:05:12.717Z,16.76
2017-11-07T03:05:40.531Z,16.73
2017-11-07T03:06:08.558Z,16.76
2017-11-07T03:06:36.621Z,16.79
2017-11-07T03:07:04.710Z,16.69
2017-11-07T03:07:32.731Z,16.72
2017-11-07T03:08:00.673Z,16.77
2017-11-07T03:08:28.720Z,16.74
2017-11-07T03:08:56.766Z,16.72
2017-11-07T03:09:24.912Z,16.65
2017-11-07T03:09:52.983Z,16.74
2017-11-07T03:10:20.886Z,16.68
2017-11-07T03:10:48.929Z,16.68
2017-11-07T03:11:16.965Z,16.69
2017-11-07T03:11:44.797Z,16.73
2017-11-07T03:12:12.843Z,16.72
2017-11-07T03:12:40.822Z,16.72
2017-11-07T03:13:08.751Z,16.69
2017-11-07T03:13:36.679Z,16.72
2017-11-07T03:14:04.649Z,16.72
2017-11-07T03:14:32.694Z,16.69
2017-11-07T03:15:00.753Z,16.69
2017-11-07T03:15:28.677Z,16.74
2017-11-07T03:15:56.609Z,16.72
2017-11-07T03:16:24.647Z,16.79
2017-11-07T03:16:52.594Z,16.68
2017-11-07T03:17:20.523Z,16.72
2017-11-07T03:17:48.370Z,16.72
2017-11-07T03:18:16.415Z,16.79
2017-11-07T03:18:44.473Z,16.72
2017-11-07T03:19:12.600Z,16.68
2017-11-07T03:19:40.333Z,16.73
2017-11-07T03:20:08.251Z,16.74
2017-11-07T03:20:36.180Z,16.68
2017-11-07T03:21:04.252Z,16.72
2017-11-07T03:21:32.211Z,16.73
2017-11-07T03:22:00.237Z,16.77
2017-11-07T03:22:28.264Z,16.68
2017-11-07T03:22:56.203Z,16.69
2017-11-07T03:23:24.328Z,16.72
2017-11-07T03:23:52.295Z,16.74
2017-11-07T03:24:20.351Z,16.73
2017-11-07T03:24:48.376Z,16.76
2017-11-07T03:25:16.471Z,16.72
2017-11-07T03:25:44.410Z,16.72
2017-11-07T03:26:12.552Z,16.74
2017-11-07T03:26:40.636Z,16.66
2017-11-07T03:27:08.681Z,16.73
2017-11-07T03:27:37.162Z,16.69
2017-11-07T03:28:05.286Z,16.64
2017-11-07T03:28:33.201Z,16.68
2017-11-07T03:29:01.488Z,16.65
2017-11-07T03:29:29.633Z,16.76
2017-11-07T03:29:57.612Z,16.68
2017-11-07T03:30:25.628Z,16.79
2017-11-07T03:30:53.442Z,16.65
2017-11-07T03:31:21.572Z,16.72
2017-11-07T03:31:49.609Z,16.74
2017-11-07T03:32:17.670Z,16.72
2017-11-07T03:32:45.822Z,16.72
2017-11-07T03:33:13.713Z,16.73
2017-11-07T03:33:41.623Z,16.72
2017-11-07T03:34:09.609Z,16.68
2017-11-07T03:34:37.551Z,16.72
2017-11-07T03:35:05.599Z,16.69
2017-11-07T03:35:33.657Z,16.77
2017-11-07T03:36:01.576Z,16.76
2017-11-07T03:36:29.693Z,16.68
2017-11-07T03:36:57.836Z,16.64
2017-11-07T03:37:25.654Z,16.69
2017-11-07T03:37:53.711Z,16.68
2017-11-07T03:38:21.732Z,16.73
2017-11-07T03:38:49.688Z,16.74
2017-11-07T03:39:17.719Z,16.69
2017-11-07T03:39:45.824Z,16.73
2017-11-07T03:40:13.834Z,16.73
2017-11-07T03:40:41.933Z,16.72
2017-11-07T03:41:09.980Z,16.66
2017-11-07T03:41:37.892Z,16.74
2017-11-07T03:42:06.121Z,16.69
2017-11-07T03:42:34.169Z,16.74
2017-11-07T03:43:02.178Z,16.73
2017-11-07T03:43:30.227Z,16.72
2017-11-07T03:43:58.148Z,16.65
2017-11-07T03:44:26.175Z,16.72
2017-11-07T03:44:54.277Z,16.65
2017-11-07T03:45:22.228Z,16.69
2017-11-07T03:45:50.164Z,16.69
2017-11-07T03:46:18.110Z,16.68
2017-11-07T03:46:46.224Z,16.72
2017-11-07T03:47:14.350Z,16.69
2017-11-07T03:47:42.404Z,16.68
2017-11-07T03:48:10.237Z,16.69
2017-11-07T03:48:38.292Z,16.59
2017-11-07T03:49:06.229Z,16.62
2017-11-07T03:49:34.248Z,16.68
2017-11-07T03:50:02.287Z,16.61
2017-11-07T03:50:30.112Z,16.57
2017-11-07T03:50:58.252Z,16.59
2017-11-07T03:51:26.403Z,16.57
2017-11-07T03:51:54.418Z,16.59
2017-11-07T03:52:22.437Z,16.61
2017-11-07T03:52:50.476Z,16.57
2017-11-07T03:53:18.506Z,16.54
2017-11-07T03:53:46.506Z,16.61
2017-11-07T03:54:14.459Z,16.68
2017-11-07T03:54:42.640Z,16.61
2017-11-07T03:55:10.548Z,16.61
2017-11-07T03:55:38.596Z,16.64
2017-11-07T03:56:06.744Z,16.61
2017-11-07T03:56:34.800Z,16.51
2017-11-07T03:57:02.839Z,16.51
2017-11-07T03:57:30.786Z,16.49
2017-11-07T03:57:58.752Z,16.59
2017-11-07T03:58:26.654Z,16.51
2017-11-07T03:58:54.577Z,16.58
2017-11-07T03:59:22.862Z,16.55
2017-11-07T03:59:50.992Z,16.58
2017-11-07T04:00:19.047Z,16.54
2017-11-07T04:00:47.082Z,16.55
2017-11-07T04:01:15.034Z,16.59
2017-11-07T04:01:43.034Z,16.51
2017-11-07T04:02:11.075Z,16.59
2017-11-07T04:02:39.201Z,16.55
2017-11-07T04:03:07.249Z,16.5
2017-11-07T04:03:35.301Z,16.57
2017-11-07T04:04:03.480Z,16.58
2017-11-07T04:04:31.446Z,16.58
2017-11-07T04:04:59.493Z,16.54
2017-11-07T04:05:27.533Z,16.54
2017-11-07T04:05:55.689Z,16.57
2017-11-07T04:06:23.787Z,16.57
2017-11-07T04:06:51.847Z,16.54
2017-11-07T04:07:19.882Z,16.59
2017-11-07T04:07:47.850Z,16.51
2017-11-07T04:08:15.969Z,16.5
2017-11-07T04:08:44.003Z,16.57
2017-11-07T04:09:12.115Z,16.55
2017-11-07T04:09:40.165Z,16.47
2017-11-07T04:10:08.192Z,16.51
2017-11-07T04:10:36.216Z,16.54
2017-11-07T04:11:04.128Z,16.49
2017-11-07T04:11:32.010Z,16.57
2017-11-07T04:12:00.182Z,16.46
2017-11-07T04:12:28.226Z,16.54
2017-11-07T04:12:56.358Z,16.47
2017-11-07T04:13:24.273Z,16.51
2017-11-07T04:13:52.404Z,16.55
2017-11-07T04:14:20.468Z,16.58
2017-11-07T04:14:48.503Z,16.5
2017-11-07T04:15:16.638Z,16.57
2017-11-07T04:15:44.697Z,16.55
2017-11-07T04:16:12.657Z,16.43
2017-11-07T04:16:40.786Z,16.49
2017-11-07T04:17:08.747Z,16.41
2017-11-07T04:17:36.753Z,16.5
2017-11-07T04:18:04.787Z,16.41
2017-11-07T04:18:32.716Z,16.46
2017-11-07T04:19:01.623Z,16.55
2017-11-07T04:19:29.655Z,16.49
2017-11-07T04:19:57.784Z,16.57
2017-11-07T04:20:25.648Z,16.55
2017-11-07T04:20:53.665Z,16.41
2017-11-07T04:21:21.894Z,16.55
2017-11-07T04:21:50.142Z,16.51
2017-11-07T04:22:18.511Z,16.49
2017-11-07T04:22:46.883Z,16.59
2017-11-07T04:23:15.215Z,16.57
2017-11-07T04:23:43.454Z,16.59
2017-11-07T04:24:11.628Z,16.49
2017-11-07T04:24:39.778Z,16.54
2017-11-07T04:25:07.782Z,16.57
2017-11-07T04:25:35.821Z,16.57
2017-11-07T04:26:03.890Z,16.58
2017-11-07T04:26:31.997Z,16.57
2017-11-07T04:27:00.125Z,16.54
2017-11-07T04:27:28.045Z,16.46
2017-11-07T04:27:56.092Z,16.59
2017-11-07T04:28:24.135Z,16.55
2017-11-07T04:28:52.207Z,16.5
2017-11-07T04:29:20.476Z,16.58
2017-11-07T04:29:48.510Z,16.58
2017-11-07T04:30:16.443Z,16.58
2017-11-07T04:30:44.524Z,16.5
2017-11-07T04:31:12.553Z,16.57
2017-11-07T04:31:40.566Z,16.5
2017-11-07T04:32:08.666Z,16.57
2017-11-07T04:32:36.815Z,16.65
2017-11-07T04:33:04.947Z,16.62
2017-11-07T04:33:33.100Z,16.51
2017-11-07T04:34:01.258Z,16.59
2017-11-07T04:34:29.264Z,16.62
2017-11-07T04:34:57.304Z,16.51
2017-11-07T04:35:25.447Z,16.61
2017-11-07T04:35:53.552Z,16.68
2017-11-07T04:36:21.601Z,16.59
2017-11-07T04:36:49.632Z,16.58
2017-11-07T04:37:17.778Z,16.57
2017-11-07T04:37:45.902Z,16.51
2017-11-07T04:38:13.931Z,16.59
2017-11-07T04:38:41.906Z,16.66
2017-11-07T04:39:09.904Z,16.59
2017-11-07T04:39:37.964Z,16.58
2017-11-07T04:40:05.966Z,16.59
2017-11-07T04:40:33.961Z,16.55
2017-11-07T04:41:01.899Z,16.68
2017-11-07T04:41:29.936Z,16.57
2017-11-07T04:41:57.995Z,16.58
2017-11-07T04:42:25.941Z,16.61
2017-11-07T04:42:53.937Z,16.61
2017-11-07T04:43:21.986Z,16.55
2017-11-07T04:43:49.890Z,16.49
2017-11-07T04:44:17.902Z,16.5
2017-11-07T04:44:46.098Z,16.51
2017-11-07T04:45:14.018Z,16.51
2017-11-07T04:45:41.870Z,16.64
2017-11-07T04:46:09.915Z,16.62
2017-11-07T04:46:37.945Z,16.64
2017-11-07T04:47:05.895Z,16.57
2017-11-07T04:47:33.784Z,16.58
2017-11-07T04:48:01.843Z,16.59
2017-11-07T04:48:29.786Z,16.51
2017-11-07T04:48:57.796Z,16.54
2017-11-07T04:49:25.803Z,16.49
2017-11-07T04:49:53.942Z,16.59
2017-11-07T04:50:21.986Z,16.54
2017-11-07T04:50:49.816Z,16.65
2017-11-07T04:51:17.778Z,16.64
2017-11-07T04:51:45.944Z,16.51
2017-11-07T04:52:13.856Z,16.51
2017-11-07T04:52:41.903Z,16.65
2017-11-07T04:53:10.132Z,16.59
2017-11-07T04:53:38.162Z,16.61
2017-11-07T04:54:06.004Z,16.61
2017-11-07T04:54:34.030Z,16.59
2017-11-07T04:55:01.957Z,16.61
2017-11-07T04:55:29.907Z,16.61
2017-11-07T04:55:58.070Z,16.57
2017-11-07T04:56:26.222Z,16.61
2017-11-07T04:56:54.392Z,16.65
2017-11-07T04:57:22.488Z,16.59
2017-11-07T04:57:50.626Z,16.55
2017-11-07T04:58:18.646Z,16.55
2017-11-07T04:58:46.387Z,16.58
2017-11-07T04:59:14.513Z,16.59
2017-11-07T04:59:42.684Z,16.59
2017-11-07T05:00:10.613Z,16.58
2017-11-07T05:00:38.684Z,16.61
2017-11-07T05:01:06.808Z,16.66
2017-11-07T05:01:34.789Z,16.59
2017-11-07T05:02:02.957Z,16.65
2017-11-07T05:02:31.055Z,16.59
2017-11-07T05:02:58.905Z,16.69
2017-11-07T05:03:26.952Z,16.65
2017-11-07T05:03:55.066Z,16.61
2017-11-07T05:04:23.237Z,16.61
2017-11-07T05:04:51.270Z,16.58
2017-11-07T05:05:19.296Z,16.62
2017-11-07T05:05:47.411Z,16.59
2017-11-07T05:06:15.447Z,16.59
2017-11-07T05:06:43.592Z,16.59
2017-11-07T05:07:11.751Z,16.68
2017-11-07T05:07:39.699Z,16.68
2017-11-07T05:08:07.532Z,16.61
2017-11-07T05:08:35.551Z,16.49
2017-11-07T05:09:03.595Z,16.51
2017-11-07T05:09:31.729Z,16.57
2017-11-07T05:09:59.951Z,16.59
2017-11-07T05:10:28.014Z,16.58
2017-11-07T05:10:56.042Z,16.59
2017-11-07T05:11:24.056Z,16.49
2017-11-07T05:11:52.072Z,16.62
2017-11-07T05:12:20.116Z,16.66
2017-11-07T05:12:48.068Z,16.59
2017-11-07T05:13:15.982Z,16.69
2017-11-07T05:13:43.990Z,16.57
2017-11-07T05:14:11.919Z,16.61
2017-11-07T05:14:40.041Z,16.59
2017-11-07T05:15:08.188Z,16.58
2017-11-07T05:15:36.035Z,16.54
2017-11-07T05:16:03.969Z,16.54
2017-11-07T05:16:31.924Z,16.61
2017-11-07T05:16:59.882Z,16.59
2017-11-07T05:17:27.952Z,16.59
2017-11-07T05:17:55.908Z,16.59
2017-11-07T05:18:24.023Z,16.55
2017-11-07T05:18:52.143Z,16.65
2017-11-07T05:19:20.312Z,16.65
2017-11-07T05:19:48.351Z,16.5
2017-11-07T05:20:16.509Z,16.5
2017-11-07T05:20:44.541Z,16.5
2017-11-07T05:21:12.483Z,16.54
2017-11-07T05:21:40.469Z,16.54
2017-11-07T05:22:08.543Z,16.5
2017-11-07T05:22:36.659Z,16.46
2017-11-07T05:23:04.793Z,16.44
2017-11-07T05:23:32.799Z,16.57
2017-11-07T05:24:00.968Z,16.5
2017-11-07T05:24:29.077Z,16.54
2017-11-07T05:24:57.117Z,16.4
2017-11-07T05:25:25.163Z,16.44
2017-11-07T05:25:53.339Z,16.37
2017-11-07T05:26:21.287Z,16.41
2017-11-07T05:26:49.336Z,16.39
2017-11-07T05:27:17.343Z,16.47
2017-11-07T05:27:45.282Z,16.43
2017-11-07T05:28:14.082Z,16.49
2017-11-07T05:28:42.012Z,16.41
2017-11-07T05:29:10.036Z,16.5
2017-11-07T05:29:38.178Z,16.41
2017-11-07T05:30:06.442Z,16.46
2017-11-07T05:30:34.472Z,16.43
2017-11-07T05:31:02.286Z,16.46
2017-11-07T05:31:30.411Z,16.43
2017-11-07T05:31:58.423Z,16.47
2017-11-07T05:32:26.360Z,16.39
2017-11-07T05:32:54.187Z,16.44
2017-11-07T05:33:22.337Z,16.32
2017-11-07T05:33:50.353Z,16.37
2017-11-07T05:34:18.300Z,16.47
2017-11-07T05:34:46.436Z,16.39
2017-11-07T05:35:14.569Z,16.44
2017-11-07T05:35:42.401Z,16.44
2017-11-07T05:36:10.341Z,16.39
2017-11-07T05:36:38.470Z,16.36
2017-11-07T05:37:06.414Z,16.32
2017-11-07T05:37:34.549Z,16.32
2017-11-07T05:38:02.581Z,16.43
2017-11-07T05:38:30.532Z,16.31
2017-11-07T05:38:58.542Z,16.32
2017-11-07T05:39:26.475Z,16.41
2017-11-07T05:39:54.479Z,16.28
2017-11-07T05:40:22.713Z,16.31
2017-11-07T05:40:50.758Z,16.34
2017-11-07T05:41:18.662Z,16.32
2017-11-07T05:41:47.450Z,16.31
2017-11-07T05:42:15.491Z,16.28
2017-11-07T05:42:43.501Z,16.31
2017-11-07T05:43:11.551Z,16.31
2017-11-07T05:43:39.542Z,16.34
2017-11-07T05:44:07.692Z,16.4
2017-11-07T05:44:35.829Z,16.32
2017-11-07T05:45:03.656Z,16.39
2017-11-07T05:45:31.489Z,16.31
2017-11-07T05:45:59.601Z,16.31
2017-11-07T05:46:27.622Z,16.41
2017-11-07T05:46:55.530Z,16.36
2017-11-07T05:47:23.650Z,16.36
2017-11-07T05:47:51.602Z,16.39
2017-11-07T05:48:19.536Z,16.44
2017-11-07T05:48:47.668Z,16.32
2017-11-07T05:49:15.692Z,16.4
2017-11-07T05:49:43.688Z,16.29
2017-11-07T05:50:11.732Z,16.41
2017-11-07T05:50:39.805Z,16.43
2017-11-07T05:51:07.854Z,16.36
2017-11-07T05:51:36.013Z,16.36
2017-11-07T05:52:04.132Z,16.29
2017-11-07T05:52:32.178Z,16.4
2017-11-07T05:53:00.103Z,16.28
2017-11-07T05:53:28.026Z,16.31
2017-11-07T05:53:56.070Z,16.29
2017-11-07T05:54:23.917Z,16.4
2017-11-07T05:54:52.062Z,16.26
2017-11-07T05:55:19.992Z,16.29
2017-11-07T05:55:47.822Z,16.32
2017-11-07T05:56:15.822Z,16.34
2017-11-07T05:56:43.784Z,16.29
2017-11-07T05:57:11.940Z,16.28
2017-11-07T05:57:39.944Z,16.31
2017-11-07T05:58:07.903Z,16.29
2017-11-07T05:58:36.019Z,16.28
2017-11-07T05:59:04.044Z,16.32
2017-11-07T05:59:32.074Z,16.32
2017-11-07T06:00:00.149Z,16.28
2017-11-07T06:00:28.419Z,16.26
2017-11-07T06:00:56.453Z,16.28
2017-11-07T06:01:24.524Z,16.31
2017-11-07T06:01:53.035Z,16.28
2017-11-07T06:02:21.531Z,16.29
2017-11-07T06:02:49.968Z,16.31
2017-11-07T06:03:18.407Z,16.31
2017-11-07T06:03:46.830Z,16.29